Time;durP1;ratioP1;P1;durP2;ratioP2;P2;SDS_P1;SDS_P2;PMS_P1;PMS_P2;Temp;Humidity;BMP_temperature;BMP_pressure;BME280_temperature;BME280_humidity;BME280_pressure;Samples;Min_cycle;Max_cycle;Signal;HPM_P1;HPM_P2
2023/05/08 00:00:03;;;;;;;10.50;8.20;;;;;;;10.85;75.22;93639.34;515772;28;842;-58
2023/05/08 00:00:19;;;;;;;10.20;8.73;;;;;;;10.84;75.24;93643.38;516172;28;910;-58
2023/05/08 00:00:34;;;;;;;13.07;8.67;;;;;;;10.79;75.27;93641.50;515696;28;874;-58
2023/05/08 00:00:55;;;;;;;12.95;8.40;;;;;;;10.78;75.46;93642.81;514136;28;1648;-58
2023/05/08 00:01:11;;;;;;;8.60;7.57;;;;;;;10.78;75.29;93646.31;514788;28;881;-58
2023/05/08 00:01:31;;;;;;;9.50;7.70;;;;;;;10.79;75.44;93647.78;513831;28;825;-58
2023/05/08 00:01:47;;;;;;;9.05;7.93;;;;;;;10.81;75.56;93639.69;513685;28;976;-59
2023/05/08 00:02:03;;;;;;;8.70;7.80;;;;;;;10.84;75.37;93643.38;513776;28;815;-58
2023/05/08 00:02:19;;;;;;;8.63;7.75;;;;;;;10.87;75.67;93642.28;515858;28;1016;-58
2023/05/08 00:02:34;;;;;;;8.85;7.60;;;;;;;10.88;75.43;93649.28;515728;28;860;-58
2023/05/08 00:02:50;;;;;;;8.57;7.55;;;;;;;10.84;75.27;93635.84;515207;28;809;-58
2023/05/08 00:03:05;;;;;;;10.43;7.70;;;;;;;10.88;75.27;93641.75;514031;28;794;-58
2023/05/08 00:03:20;;;;;;;11.13;7.97;;;;;;;10.88;75.11;93643.75;515989;28;817;-58
2023/05/08 00:03:36;;;;;;;9.13;8.20;;;;;;;10.85;75.06;93647.63;515798;28;828;-58
2023/05/08 00:03:52;;;;;;;8.40;7.57;;;;;;;10.62;75.42;93637.22;515537;28;1068;-58
2023/05/08 00:04:07;;;;;;;8.57;7.43;;;;;;;10.50;76.36;93647.06;516103;28;868;-58
2023/05/08 00:04:23;;;;;;;9.13;7.90;;;;;;;10.38;76.72;93648.66;513720;28;1687;-58
2023/05/08 00:04:38;;;;;;;9.82;7.90;;;;;;;10.30;77.29;93649.91;513774;28;816;-58
2023/05/08 00:04:53;;;;;;;10.07;7.90;;;;;;;10.26;77.45;93641.22;513762;28;883;-58
2023/05/08 00:05:09;;;;;;;14.20;8.30;;;;;;;10.27;77.72;93640.66;514801;28;809;-58
2023/05/08 00:05:24;;;;;;;14.97;8.17;;;;;;;10.24;77.74;93633.50;515669;28;1131;-58
2023/05/08 00:05:40;;;;;;;10.70;8.07;;;;;;;10.30;77.80;93642.38;515839;28;805;-58
2023/05/08 00:05:56;;;;;;;10.10;7.88;;;;;;;10.26;77.77;93636.44;515697;28;967;-58
2023/05/08 00:06:11;;;;;;;9.30;7.83;;;;;;;10.26;77.50;93650.25;516032;28;836;-58
2023/05/08 00:06:27;;;;;;;9.47;8.23;;;;;;;10.30;77.51;93641.63;515725;28;1521;-58
2023/05/08 00:06:42;;;;;;;10.82;8.45;;;;;;;10.26;77.32;93630.94;515650;28;1100;-58
2023/05/08 00:06:57;;;;;;;10.67;8.33;;;;;;;10.40;77.34;93640.56;515753;28;985;-58
2023/05/08 00:07:13;;;;;;;10.65;8.25;;;;;;;10.46;77.07;93638.41;515978;28;796;-58
2023/05/08 00:07:29;;;;;;;9.63;8.03;;;;;;;10.48;77.20;93637.88;514155;28;792;-58
2023/05/08 00:07:44;;;;;;;9.20;8.00;;;;;;;10.51;76.72;93640.28;513705;28;791;-57
2023/05/08 00:08:00;;;;;;;10.83;8.70;;;;;;;10.53;76.50;93639.72;515355;28;806;-57
2023/05/08 00:08:15;;;;;;;11.45;8.82;;;;;;;10.53;76.63;93639.72;515193;28;1029;-58
2023/05/08 00:08:31;;;;;;;10.90;8.00;;;;;;;10.46;76.44;93643.91;515803;28;789;-58
2023/05/08 00:08:46;;;;;;;10.73;8.00;;;;;;;10.44;76.63;93640.97;515416;28;1322;-57
2023/05/08 00:09:02;;;;;;;9.03;7.73;;;;;;;10.44;76.66;93634.69;515812;28;809;-57
2023/05/08 00:09:18;;;;;;;9.25;7.55;;;;;;;10.51;76.79;93637.50;514389;28;837;-58
2023/05/08 00:09:34;;;;;;;9.13;7.80;;;;;;;10.47;76.69;93639.88;513602;28;1073;-58
2023/05/08 00:09:50;;;;;;;9.80;8.32;;;;;;;10.39;76.84;93635.59;514836;28;1154;-58
2023/05/08 00:10:06;;;;;;;11.00;8.65;;;;;;;10.29;76.99;93629.09;515649;28;911;-57
2023/05/08 00:10:21;;;;;;;9.82;8.18;;;;;;;10.21;77.81;93639.34;515313;28;1302;-58
2023/05/08 00:10:37;;;;;;;10.77;8.70;;;;;;;10.05;78.25;93640.50;515822;28;789;-57
2023/05/08 00:10:52;;;;;;;10.05;8.57;;;;;;;9.99;78.83;93643.38;515672;28;1911;-57
2023/05/08 00:11:08;;;;;;;8.97;7.93;;;;;;;10.01;79.21;93638.06;515611;28;928;-57
2023/05/08 00:11:23;;;;;;;9.15;8.05;;;;;;;10.08;79.32;93642.91;513546;28;1453;-57
2023/05/08 00:11:38;;;;;;;8.40;7.37;;;;;;;10.10;79.01;93637.59;513714;28;809;-57
2023/05/08 00:11:54;;;;;;;8.17;7.20;;;;;;;10.19;78.86;93641.91;513694;28;864;-57
2023/05/08 00:12:09;;;;;;;9.18;7.78;;;;;;;10.20;78.99;93635.13;514117;28;888;-57
2023/05/08 00:12:24;;;;;;;9.60;7.80;;;;;;;10.25;78.68;93640.47;515673;28;769;-57
2023/05/08 00:12:40;;;;;;;10.53;7.70;;;;;;;10.21;78.24;93633.81;515767;28;829;-57
2023/05/08 00:12:55;;;;;;;11.45;7.63;;;;;;;10.22;78.13;93640.84;515687;28;1039;-57
2023/05/08 00:13:10;;;;;;;10.83;7.53;;;;;;;10.26;78.15;93643.97;515957;28;823;-57
2023/05/08 00:13:26;;;;;;;9.57;7.60;;;;;;;10.27;78.02;93634.41;515610;28;904;-57
2023/05/08 00:13:41;;;;;;;8.70;7.82;;;;;;;10.35;77.91;93641.47;515542;28;821;-57
2023/05/08 00:13:57;;;;;;;8.77;7.50;;;;;;;10.40;77.50;93639.81;515397;28;874;-57
2023/05/08 00:14:12;;;;;;;9.70;7.23;;;;;;;10.44;77.29;93640.22;515825;28;910;-58
2023/05/08 00:14:27;;;;;;;9.98;7.63;;;;;;;10.49;77.15;93636.56;514000;28;1353;-57
2023/05/08 00:14:43;;;;;;;9.23;7.70;;;;;;;10.52;76.83;93641.75;513498;28;828;-58
2023/05/08 00:14:58;;;;;;;9.80;7.53;;;;;;;10.52;76.66;93629.97;513668;28;814;-57
2023/05/08 00:15:14;;;;;;;9.97;7.80;;;;;;;10.58;76.67;93636.06;515402;28;821;-57
2023/05/08 00:15:29;;;;;;;8.55;7.65;;;;;;;10.62;76.36;93636.47;515672;28;923;-57
2023/05/08 00:15:45;;;;;;;8.47;7.57;;;;;;;10.65;76.45;93636.09;515679;28;1075;-57
2023/05/08 00:16:01;;;;;;;8.43;7.60;;;;;;;10.69;76.26;93638.53;515328;28;1383;-57
2023/05/08 00:16:17;;;;;;;9.57;7.53;;;;;;;10.73;76.02;93635.41;515808;28;974;-58
2023/05/08 00:16:32;;;;;;;10.40;7.65;;;;;;;10.76;76.17;93637.84;515746;28;1297;-58
2023/05/08 00:16:48;;;;;;;11.00;7.67;;;;;;;10.79;75.89;93642.25;514997;28;1171;-58
2023/05/08 00:17:03;;;;;;;11.40;7.80;;;;;;;10.82;75.75;93637.66;514227;28;845;-57
2023/05/08 00:17:18;;;;;;;10.90;7.97;;;;;;;10.83;75.79;93636.38;515037;28;1245;-58
2023/05/08 00:17:34;;;;;;;9.77;7.77;;;;;;;10.83;75.66;93625.34;513718;28;936;-59
2023/05/08 00:17:49;;;;;;;8.77;7.40;;;;;;;10.88;75.54;93636.22;513666;28;1062;-59
2023/05/08 00:18:04;;;;;;;9.27;7.50;;;;;;;10.91;75.38;93637.16;513900;28;836;-59
2023/05/08 00:18:20;;;;;;;8.90;7.33;;;;;;;10.91;75.27;93626.09;515921;28;1016;-59
2023/05/08 00:18:37;;;;;;;9.48;7.30;;;;;;;10.91;74.99;93635.13;515807;28;844;-59
2023/05/08 00:18:53;;;;;;;11.45;7.70;;;;;;;10.90;74.96;93635.66;515698;28;898;-59
2023/05/08 00:19:09;;;;;;;14.68;7.88;;;;;;;10.90;74.91;93633.66;516127;28;832;-59
2023/05/08 00:19:24;;;;;;;11.97;7.57;;;;;;;10.90;75.00;93635.66;515720;28;943;-59
2023/05/08 00:19:40;;;;;;;8.52;7.57;;;;;;;10.90;74.98;93638.44;515785;28;940;-59
2023/05/08 00:19:55;;;;;;;9.40;7.83;;;;;;;10.91;75.09;93631.63;515615;28;1154;-59
2023/05/08 00:20:11;;;;;;;11.63;8.25;;;;;;;10.92;75.05;93630.34;516125;28;809;-59
2023/05/08 00:20:26;;;;;;;10.68;8.15;;;;;;;10.91;75.06;93632.38;515690;28;806;-58
2023/05/08 00:20:42;;;;;;;9.67;8.20;;;;;;;10.89;75.04;93637.72;514004;28;1628;-59
2023/05/08 00:20:57;;;;;;;9.90;8.80;;;;;;;10.87;75.24;93636.78;513771;28;900;-59
2023/05/08 00:21:13;;;;;;;9.45;8.45;;;;;;;10.78;75.14;93635.25;515113;28;964;-59
2023/05/08 00:21:28;;;;;;;10.27;8.03;;;;;;;10.71;75.18;93624.91;515769;28;1134;-59
2023/05/08 00:21:44;;;;;;;14.15;8.50;;;;;;;10.69;75.47;93630.25;515714;28;1535;-59
2023/05/08 00:21:59;;;;;;;13.03;8.57;;;;;;;10.71;75.67;93632.44;515664;28;797;-59
2023/05/08 00:22:15;;;;;;;10.43;8.52;;;;;;;10.68;75.83;93635.03;516085;28;833;-59
2023/05/08 00:22:30;;;;;;;11.73;8.13;;;;;;;10.70;75.87;93634.47;515679;28;805;-59
2023/05/08 00:22:45;;;;;;;10.23;7.90;;;;;;;10.68;75.88;93631.50;514747;28;849;-58
2023/05/08 00:23:01;;;;;;;8.75;7.85;;;;;;;10.70;75.84;93631.72;515453;28;1092;-59
2023/05/08 00:23:16;;;;;;;8.53;7.60;;;;;;;10.65;75.94;93638.88;516100;28;878;-59
2023/05/08 00:23:32;;;;;;;9.17;7.73;;;;;;;10.62;76.29;93631.69;515687;28;805;-59
2023/05/08 00:23:47;;;;;;;9.82;7.60;;;;;;;10.55;76.37;93629.63;515723;28;864;-58
2023/05/08 00:24:03;;;;;;;9.57;7.87;;;;;;;10.55;76.13;93634.38;514358;28;877;-59
2023/05/08 00:24:19;;;;;;;9.40;8.23;;;;;;;10.57;76.47;93635.34;514577;28;1061;-59
2023/05/08 00:24:34;;;;;;;10.10;8.30;;;;;;;10.58;76.51;93633.31;515739;28;833;-59
2023/05/08 00:24:49;;;;;;;10.53;8.17;;;;;;;10.56;76.31;93633.88;515690;28;944;-59
2023/05/08 00:25:05;;;;;;;10.10;8.27;;;;;;;10.57;76.22;93632.56;515754;28;889;-59
2023/05/08 00:25:20;;;;;;;9.67;8.07;;;;;;;10.58;76.44;93634.06;515933;28;802;-59
2023/05/08 00:25:36;;;;;;;11.13;7.60;;;;;;;10.60;76.27;93634.25;515718;28;869;-59
2023/05/08 00:25:51;;;;;;;10.63;7.40;;;;;;;10.62;76.36;93639.97;515202;28;928;-59
2023/05/08 00:26:06;;;;;;;9.33;7.40;;;;;;;10.61;76.23;93635.72;514388;28;825;-58
2023/05/08 00:26:22;;;;;;;9.38;7.60;;;;;;;10.62;76.26;93636.47;513673;28;868;-59
2023/05/08 00:26:37;;;;;;;10.33;7.80;;;;;;;10.61;76.30;93632.97;513745;28;807;-59
2023/05/08 00:26:53;;;;;;;11.93;7.97;;;;;;;10.63;76.12;93630.38;515440;28;864;-58
2023/05/08 00:27:08;;;;;;;11.03;7.90;;;;;;;10.66;75.94;93637.59;516062;28;911;-58
2023/05/08 00:27:23;;;;;;;9.33;7.70;;;;;;;10.68;75.78;93636.31;515567;28;1088;-59
2023/05/08 00:27:39;;;;;;;9.98;7.50;;;;;;;10.69;75.82;93627.47;515752;28;912;-58
2023/05/08 00:27:54;;;;;;;12.27;7.33;;;;;;;10.73;75.55;93638.16;515678;28;918;-59
2023/05/08 00:28:09;;;;;;;12.00;7.43;;;;;;;10.74;75.58;93639.66;516070;28;857;-59
2023/05/08 00:28:25;;;;;;;12.75;8.07;;;;;;;10.75;75.51;93638.34;515730;28;872;-58
2023/05/08 00:28:41;;;;;;;11.37;7.93;;;;;;;10.65;75.74;93636.09;515527;28;1266;-58
2023/05/08 00:28:56;;;;;;;8.70;7.80;;;;;;;10.69;75.52;93644.06;513632;28;1080;-58
2023/05/08 00:29:11;;;;;;;9.90;7.93;;;;;;;10.68;75.67;93639.09;514939;28;905;-59
2023/05/08 00:29:27;;;;;;;11.90;7.60;;;;;;;10.64;75.60;93636.66;514539;28;1759;-58
2023/05/08 00:29:42;;;;;;;11.13;7.53;;;;;;;10.64;75.64;93636.66;513713;28;860;-58
2023/05/08 00:29:57;;;;;;;10.00;7.40;;;;;;;10.65;75.44;93638.88;513700;28;951;-58
2023/05/08 00:30:13;;;;;;;9.07;7.27;;;;;;;10.66;75.76;93642.38;515163;28;988;-58
2023/05/08 00:30:28;;;;;;;8.38;7.30;;;;;;;10.68;75.61;93639.09;515642;28;1175;-58
2023/05/08 00:30:44;;;;;;;9.10;7.50;;;;;;;10.68;75.81;93635.03;515371;28;1198;-58
2023/05/08 00:31:00;;;;;;;9.70;7.85;;;;;;;10.65;75.95;93641.63;515710;28;1980;-58
2023/05/08 00:31:16;;;;;;;8.63;7.72;;;;;;;10.63;75.89;93643.47;516035;28;840;-58
2023/05/08 00:31:31;;;;;;;8.18;7.38;;;;;;;10.41;75.99;93650.34;515767;28;842;-58
2023/05/08 00:31:47;;;;;;;8.60;7.43;;;;;;;10.20;76.49;93644.13;515694;28;947;-59
2023/05/08 00:32:02;;;;;;;9.30;7.95;;;;;;;10.10;76.87;93636.84;515554;28;1178;-58
2023/05/08 00:32:17;;;;;;;9.30;8.17;;;;;;;10.04;77.26;93636.25;516089;28;775;-58
2023/05/08 00:32:33;;;;;;;9.23;7.63;;;;;;;10.12;77.48;93634.31;515708;28;806;-58
2023/05/08 00:32:48;;;;;;;11.02;7.70;;;;;;;10.14;77.40;93634.50;515727;28;833;-58
2023/05/08 00:33:04;;;;;;;10.30;7.63;;;;;;;10.20;77.64;93646.88;515766;28;794;-58
2023/05/08 00:33:19;;;;;;;9.50;7.73;;;;;;;10.23;77.25;93645.06;514467;28;1175;-58
2023/05/08 00:33:34;;;;;;;9.52;7.80;;;;;;;10.27;77.14;93643.44;514147;28;1416;-58
2023/05/08 00:33:50;;;;;;;9.30;7.70;;;;;;;10.30;76.98;93647.88;513715;28;852;-58
2023/05/08 00:34:05;;;;;;;11.10;7.70;;;;;;;10.23;77.15;93647.81;513948;28;889;-58
2023/05/08 00:34:20;;;;;;;9.82;7.10;;;;;;;10.20;77.00;93641.34;515955;28;879;-58
2023/05/08 00:34:36;;;;;;;8.23;7.37;;;;;;;10.25;77.15;93643.25;515389;28;797;-57
2023/05/08 00:34:51;;;;;;;10.07;7.73;;;;;;;10.31;76.68;93643.09;513716;28;770;-58
2023/05/08 00:35:07;;;;;;;9.38;7.63;;;;;;;10.33;76.73;93644.03;515424;28;1150;-58
2023/05/08 00:35:22;;;;;;;8.93;8.02;;;;;;;10.37;76.73;93647.16;513752;28;782;-58
2023/05/08 00:35:40;;;;;;;9.77;8.00;;;;;;;10.38;76.37;93645.91;513737;28;944;-58
2023/05/08 00:36:03;;;;;;;9.25;7.40;;;;;;;10.37;76.60;93649.94;513616;28;858;-58
2023/05/08 00:36:18;;;;;;;8.95;7.68;;;;;;;10.38;76.47;93650.66;515789;28;948;-58
2023/05/08 00:36:33;;;;;;;9.55;7.97;;;;;;;10.36;76.45;93640.19;515526;28;1072;-57
2023/05/08 00:36:49;;;;;;;9.50;7.90;;;;;;;10.37;76.61;93652.69;515527;28;879;-57
2023/05/08 00:37:04;;;;;;;9.80;8.10;;;;;;;10.26;76.85;93641.97;515584;28;892;-58
2023/05/08 00:37:20;;;;;;;8.70;7.80;;;;;;;10.17;77.14;93644.47;514811;28;1695;-58
2023/05/08 00:37:36;;;;;;;8.43;7.40;;;;;;;10.06;77.29;93650.25;513509;28;813;-58
2023/05/08 00:37:52;;;;;;;9.50;7.47;;;;;;;10.04;77.26;93641.78;513642;28;928;-57
2023/05/08 00:38:08;;;;;;;8.93;7.60;;;;;;;10.07;77.45;93646.22;515509;28;1151;-57
2023/05/08 00:38:23;;;;;;;8.40;7.57;;;;;;;10.10;77.64;93640.34;515744;28;860;-56
2023/05/08 00:38:38;;;;;;;8.50;7.47;;;;;;;10.14;77.17;93640.78;515737;28;924;-58
2023/05/08 00:38:54;;;;;;;9.53;7.40;;;;;;;10.18;77.14;93646.69;515798;28;834;-58
2023/05/08 00:39:09;;;;;;;8.63;7.13;;;;;;;10.22;77.06;93647.06;516058;28;816;-58
2023/05/08 00:39:25;;;;;;;8.55;7.45;;;;;;;10.22;76.78;93646.34;515740;28;923;-57
2023/05/08 00:39:40;;;;;;;11.10;8.00;;;;;;;10.13;76.86;93646.84;515675;28;1143;-57
2023/05/08 00:39:55;;;;;;;11.50;7.93;;;;;;;10.08;77.00;93648.44;515624;28;1464;-58
2023/05/08 00:40:11;;;;;;;9.17;7.70;;;;;;;10.05;77.12;93646.03;516063;28;861;-57
2023/05/08 00:40:26;;;;;;;8.73;7.60;;;;;;;9.98;77.23;93647.44;515815;28;852;-57
2023/05/08 00:40:42;;;;;;;9.60;7.38;;;;;;;9.97;77.51;93647.97;515673;28;924;-58
2023/05/08 00:40:57;;;;;;;10.70;7.53;;;;;;;10.00;77.54;93646.91;515696;28;1158;-58
2023/05/08 00:41:13;;;;;;;9.70;7.73;;;;;;;10.03;77.42;93643.78;516037;28;943;-58
2023/05/08 00:41:28;;;;;;;9.27;8.17;;;;;;;10.11;76.99;93644.63;515740;28;821;-58
2023/05/08 00:41:44;;;;;;;9.98;8.38;;;;;;;10.06;77.04;93631.69;515754;28;963;-58
2023/05/08 00:42:00;;;;;;;8.82;7.85;;;;;;;9.68;76.85;93579.00;514526;28;1672;-58
2023/05/08 00:42:15;;;;;;;9.67;7.90;;;;;;;10.00;77.15;93636.59;515532;28;871;-58
2023/05/08 00:42:30;;;;;;;10.57;8.00;;;;;;;10.07;77.28;93646.94;515297;28;1036;-58
2023/05/08 00:42:46;;;;;;;10.27;7.90;;;;;;;10.06;77.12;93647.47;515665;28;1076;-58
2023/05/08 00:43:01;;;;;;;9.70;7.97;;;;;;;10.06;77.31;93645.47;515714;28;951;-58
2023/05/08 00:43:18;;;;;;;9.60;8.32;;;;;;;10.10;77.31;93645.88;515767;28;1172;-58
2023/05/08 00:43:34;;;;;;;9.57;8.43;;;;;;;10.13;77.49;93650.34;515775;28;842;-58
2023/05/08 00:43:50;;;;;;;9.20;8.30;;;;;;;10.17;77.22;93653.50;515768;28;868;-58
2023/05/08 00:44:05;;;;;;;8.90;8.00;;;;;;;10.20;77.29;93643.41;515750;28;1170;-58
2023/05/08 00:44:21;;;;;;;9.27;7.68;;;;;;;10.23;77.18;93634.75;515884;28;876;-58
2023/05/08 00:44:38;;;;;;;11.87;7.90;;;;;;;10.27;77.13;93651.72;515347;28;805;-58
2023/05/08 00:44:53;;;;;;;12.27;8.27;;;;;;;10.30;76.92;93641.63;514272;28;845;-59
2023/05/08 00:45:09;;;;;;;10.20;8.38;;;;;;;10.32;76.87;93647.31;515581;28;832;-58
2023/05/08 00:45:31;;;;;;;11.70;8.60;;;;;;;10.32;76.59;93650.84;513687;28;818;-58
2023/05/08 00:45:47;;;;;;;11.68;8.57;;;;;;;10.33;76.86;93646.78;514919;28;1273;-58
2023/05/08 00:46:02;;;;;;;9.80;8.27;;;;;;;10.35;76.98;93649.00;515684;28;876;-58
2023/05/08 00:46:18;;;;;;;9.00;8.10;;;;;;;10.35;76.79;93644.22;515970;28;2575;-58
2023/05/08 00:46:35;;;;;;;9.77;8.00;;;;;;;10.37;76.78;93652.69;515794;28;868;-58
2023/05/08 00:46:50;;;;;;;11.73;8.80;;;;;;;10.39;76.53;93650.16;515716;28;805;-58
2023/05/08 00:47:06;;;;;;;11.13;8.70;;;;;;;10.41;76.60;93649.59;515771;28;1123;-59
2023/05/08 00:47:22;;;;;;;9.63;7.80;;;;;;;10.43;76.42;93649.78;514540;28;1606;-58
2023/05/08 00:47:37;;;;;;;9.73;7.87;;;;;;;10.43;76.11;93647.78;513601;28;813;-59
2023/05/08 00:47:53;;;;;;;10.27;7.95;;;;;;;10.42;76.29;93642.78;512366;28;1611;-58
2023/05/08 00:48:08;;;;;;;8.63;7.47;;;;;;;10.34;76.30;93636.47;512464;28;892;-58
2023/05/08 00:48:24;;;;;;;8.73;7.50;;;;;;;10.36;76.16;93639.44;513537;28;1089;-59
2023/05/08 00:48:39;;;;;;;9.50;7.75;;;;;;;10.40;76.03;93654.38;511481;29;1120;-58
2023/05/08 00:48:55;;;;;;;8.38;7.35;;;;;;;10.43;76.01;93650.53;511927;28;838;-59
2023/05/08 00:49:13;;;;;;;8.45;7.45;;;;;;;10.39;75.98;93639.13;513840;28;1046;-59
2023/05/08 00:49:28;;;;;;;8.52;7.63;;;;;;;10.49;75.52;93653.88;513306;28;899;-59
2023/05/08 00:49:44;;;;;;;8.73;7.73;;;;;;;10.50;75.72;93647.06;513554;28;810;-59
2023/05/08 00:50:00;;;;;;;8.85;7.65;;;;;;;10.53;75.34;93659.03;513670;28;1609;-58
2023/05/08 00:50:15;;;;;;;8.52;7.38;;;;;;;10.51;75.21;93659.59;513348;28;864;-58
2023/05/08 00:50:31;;;;;;;9.43;7.85;;;;;;;10.52;75.28;93655.56;514380;28;805;-59
2023/05/08 00:50:47;;;;;;;10.60;8.10;;;;;;;10.53;75.62;93651.50;515493;28;1911;-59
2023/05/08 00:51:06;;;;;;;9.77;8.20;;;;;;;10.56;75.42;93655.97;513573;28;786;-59
2023/05/08 00:51:22;;;;;;;8.65;7.78;;;;;;;10.57;75.21;93654.66;513455;28;830;-58
2023/05/08 00:51:38;;;;;;;10.70;7.85;;;;;;;10.56;75.31;93658.72;513553;28;1174;-59
2023/05/08 00:51:54;;;;;;;10.82;7.70;;;;;;;10.55;75.12;93657.22;510299;29;1221;-59
2023/05/08 00:52:10;;;;;;;9.65;7.90;;;;;;;10.55;75.03;93659.25;510242;28;909;-59
2023/05/08 00:52:27;;;;;;;11.88;8.30;;;;;;;10.56;75.25;93661.47;510477;29;920;-59
2023/05/08 00:52:42;;;;;;;10.38;7.75;;;;;;;10.54;75.29;93655.75;510451;29;1753;-58
2023/05/08 00:52:59;;;;;;;9.10;8.10;;;;;;;10.51;75.23;93654.06;512626;28;1625;-59
2023/05/08 00:53:15;;;;;;;10.25;8.75;;;;;;;10.49;75.20;93658.66;513803;28;887;-59
2023/05/08 00:53:32;;;;;;;11.00;8.40;;;;;;;10.49;75.46;93658.66;513554;28;1105;-59
2023/05/08 00:53:48;;;;;;;13.75;8.65;;;;;;;10.48;75.22;93657.19;512702;28;860;-59
2023/05/08 00:54:03;;;;;;;12.27;8.23;;;;;;;10.48;75.13;93651.69;514540;28;849;-59
2023/05/08 00:54:19;;;;;;;10.87;7.90;;;;;;;10.33;75.35;93657.09;516632;28;1075;-59
2023/05/08 00:54:36;;;;;;;10.07;7.68;;;;;;;10.17;75.43;93655.50;516377;28;1110;-59
2023/05/08 00:54:51;;;;;;;11.82;7.70;;;;;;;10.02;75.92;93644.31;515504;28;974;-59
2023/05/08 00:55:07;;;;;;;13.97;8.20;;;;;;;9.89;76.56;93656.94;515904;28;865;-58
2023/05/08 00:55:23;;;;;;;12.27;8.15;;;;;;;9.83;77.10;93652.84;513518;28;889;-59
2023/05/08 00:55:38;;;;;;;12.73;7.90;;;;;;;9.82;77.46;93656.84;511608;29;822;-59
2023/05/08 00:55:54;;;;;;;12.27;8.10;;;;;;;9.82;77.43;93657.59;511440;29;955;-59
2023/05/08 00:56:10;;;;;;;11.60;8.43;;;;;;;9.76;77.56;93640.47;514011;28;1135;-59
2023/05/08 00:56:27;;;;;;;12.55;8.68;;;;;;;9.90;77.44;93660.41;513475;28;889;-59
2023/05/08 00:56:43;;;;;;;11.73;8.50;;;;;;;9.93;77.44;93657.34;513418;28;1003;-59
2023/05/08 00:56:59;;;;;;;12.27;8.53;;;;;;;9.97;77.23;93656.97;511372;29;1630;-59
2023/05/08 00:57:15;;;;;;;14.18;8.88;;;;;;;9.92;77.09;93649.56;511805;28;935;-59
2023/05/08 00:57:35;;;;;;;11.73;8.60;;;;;;;9.97;77.12;93654.22;512081;28;1068;-59
2023/05/08 00:57:51;;;;;;;10.23;8.70;;;;;;;9.93;77.07;93642.78;513297;28;1088;-59
2023/05/08 00:58:06;;;;;;;11.20;9.15;;;;;;;10.00;77.15;93649.66;513922;28;1748;-59
2023/05/08 00:58:23;;;;;;;11.90;8.97;;;;;;;10.03;77.14;93654.81;512854;28;853;-59
2023/05/08 00:58:39;;;;;;;12.02;8.63;;;;;;;10.09;76.85;93654.69;513617;28;913;-59
2023/05/08 00:58:55;;;;;;;10.50;8.38;;;;;;;10.12;76.83;93651.59;513592;28;932;-59
2023/05/08 00:59:12;;;;;;;11.10;8.43;;;;;;;10.13;76.51;93653.09;514843;28;1187;-59
2023/05/08 00:59:27;;;;;;;12.40;8.25;;;;;;;10.16;76.57;93654.75;513733;28;920;-59
2023/05/08 00:59:45;;;;;;;10.37;8.03;;;;;;;10.16;76.34;93652.00;514365;28;1723;-59
2023/05/08 01:00:03;;;;;;;10.77;7.68;;;;;;;10.17;76.08;93661.78;515019;28;1548;-59
2023/05/08 01:00:19;;;;;;;11.88;7.65;;;;;;;10.19;76.09;93650.94;515910;28;833;-59
2023/05/08 01:00:35;;;;;;;11.57;8.10;;;;;;;10.16;75.94;93654.75;513456;28;1123;-59
2023/05/08 01:00:51;;;;;;;10.87;8.70;;;;;;;10.16;75.74;93654.00;511483;28;904;-59
2023/05/08 01:01:06;;;;;;;9.20;7.82;;;;;;;10.17;75.69;93650.72;511550;29;1675;-59
2023/05/08 01:01:22;;;;;;;9.53;7.23;;;;;;;10.14;75.98;93651.81;511559;29;814;-60
2023/05/08 01:01:38;;;;;;;9.95;7.55;;;;;;;10.13;76.07;93649.59;510955;29;877;-59
2023/05/08 01:01:54;;;;;;;9.38;7.90;;;;;;;10.15;76.06;93652.56;509478;29;1103;-59
2023/05/08 01:02:09;;;;;;;10.40;8.03;;;;;;;10.16;76.41;93654.00;507839;29;1197;-60
2023/05/08 01:02:24;;;;;;;12.02;7.97;;;;;;;10.17;76.21;93655.50;506963;29;877;-60
2023/05/08 01:02:40;;;;;;;9.70;7.77;;;;;;;10.19;76.25;93655.69;507601;29;960;-59
2023/05/08 01:02:55;;;;;;;8.80;7.93;;;;;;;10.20;76.07;93655.16;507500;29;895;-59
2023/05/08 01:03:11;;;;;;;10.13;8.15;;;;;;;10.26;75.97;93655.03;506597;29;842;-59
2023/05/08 01:03:27;;;;;;;9.13;7.70;;;;;;;10.27;75.68;93657.22;509500;28;865;-59
2023/05/08 01:03:42;;;;;;;8.00;7.20;;;;;;;10.27;75.65;93654.47;509809;28;1196;-59
2023/05/08 01:03:57;;;;;;;9.55;7.60;;;;;;;10.26;75.75;93653.00;511901;28;884;-60
2023/05/08 01:04:13;;;;;;;10.93;8.03;;;;;;;10.29;75.53;93651.91;513450;28;860;-59
2023/05/08 01:04:29;;;;;;;9.23;7.70;;;;;;;10.23;75.50;93643.03;513579;28;829;-59
2023/05/08 01:04:45;;;;;;;7.85;7.05;;;;;;;10.14;75.75;93648.28;513427;28;912;-59
2023/05/08 01:05:02;;;;;;;8.13;7.30;;;;;;;10.06;75.96;93653.75;513467;28;1621;-59
2023/05/08 01:05:17;;;;;;;9.20;7.35;;;;;;;10.03;76.27;93654.81;514960;28;842;-59
2023/05/08 01:05:33;;;;;;;9.50;7.27;;;;;;;10.04;76.36;93653.56;515549;28;881;-60
2023/05/08 01:05:49;;;;;;;9.48;7.20;;;;;;;10.05;76.02;93660.53;515624;28;833;-60
2023/05/08 01:06:05;;;;;;;8.17;6.90;;;;;;;10.08;76.25;93651.19;514924;28;1599;-59
2023/05/08 01:06:20;;;;;;;8.23;6.95;;;;;;;10.10;76.08;93647.88;515456;28;912;-59
2023/05/08 01:06:36;;;;;;;8.10;6.83;;;;;;;10.07;76.34;93648.97;515593;28;1111;-59
2023/05/08 01:06:51;;;;;;;8.63;7.13;;;;;;;10.04;76.20;93647.28;515462;28;858;-60
2023/05/08 01:07:07;;;;;;;9.02;7.20;;;;;;;10.04;76.37;93653.56;516000;28;877;-60
2023/05/08 01:07:22;;;;;;;8.43;7.30;;;;;;;10.00;76.34;93652.41;513876;28;1572;-59
2023/05/08 01:07:37;;;;;;;8.40;7.37;;;;;;;9.88;76.85;93651.94;513778;28;881;-60
2023/05/08 01:07:53;;;;;;;8.40;7.10;;;;;;;9.87;77.13;93650.47;515730;28;1067;-60
2023/05/08 01:08:08;;;;;;;8.43;7.00;;;;;;;9.89;77.37;93656.94;515815;28;1139;-59
2023/05/08 01:08:24;;;;;;;9.63;6.82;;;;;;;9.92;76.96;93650.31;515908;28;831;-59
2023/05/08 01:08:41;;;;;;;9.40;6.70;;;;;;;9.96;77.02;93650.00;515754;28;834;-59
2023/05/08 01:08:57;;;;;;;7.95;6.75;;;;;;;9.94;77.21;93652.53;513871;28;1121;-59
2023/05/08 01:09:12;;;;;;;11.18;8.52;;;;;;;9.94;77.03;93644.25;515317;28;838;-59
2023/05/08 01:09:27;;;;;;;11.40;8.70;;;;;;;9.98;77.37;93652.97;515968;28;838;-59
2023/05/08 01:09:43;;;;;;;10.13;7.68;;;;;;;9.98;77.10;93649.44;515793;28;1195;-59
2023/05/08 01:09:58;;;;;;;12.17;8.00;;;;;;;9.90;77.29;93649.38;513806;28;928;-59
2023/05/08 01:10:15;;;;;;;14.40;8.57;;;;;;;9.85;77.57;93647.53;515329;28;885;-59
2023/05/08 01:10:42;;;;;;;14.55;9.60;;;;;;;9.82;77.86;93648.59;515984;28;848;-59
2023/05/08 01:11:25;;;;;;;17.27;11.23;;;;;;;9.85;78.10;93648.25;514038;28;1985;-59
2023/05/08 01:11:50;;;;;;;18.70;11.55;;;;;;;9.91;78.27;93648.84;514008;28;1054;-59
2023/05/08 01:12:25;;;;;;;17.60;12.10;;;;;;;9.93;77.92;93646.31;514346;28;869;-59
2023/05/08 01:13:21;;;;;;;26.85;16.25;;;;;;;9.99;77.96;93643.38;514508;28;1147;-59
2023/05/08 01:14:07;;;;;;;27.45;16.02;;;;;;;10.04;77.51;93642.50;513924;28;884;-58
2023/05/08 01:14:39;;;;;;;21.38;13.98;;;;;;;10.10;77.34;93648.63;513974;28;889;-58
2023/05/08 01:15:15;;;;;;;21.02;13.55;;;;;;;10.08;77.13;93642.91;513995;28;956;-58
2023/05/08 01:15:35;;;;;;;18.23;12.38;;;;;;;10.08;77.24;93642.16;514263;28;1147;-59
2023/05/08 01:16:18;;;;;;;18.45;12.75;;;;;;;9.99;77.67;93631.59;515644;28;1297;-58
2023/05/08 01:16:54;;;;;;;19.48;12.43;;;;;;;9.97;78.03;93639.69;514162;28;1692;-58
2023/05/08 01:17:37;;;;;;;15.83;11.13;;;;;;;9.92;78.44;93647.56;516085;28;1000;-58
2023/05/08 01:18:08;;;;;;;16.52;11.10;;;;;;;9.93;78.36;93643.53;515763;28;1597;-59
2023/05/08 01:18:38;;;;;;;16.60;11.00;;;;;;;9.93;78.53;93643.53;515867;28;814;-58
2023/05/08 01:19:05;;;;;;;15.48;10.52;;;;;;;9.93;78.59;93643.53;513866;28;829;-58
2023/05/08 01:19:20;;;;;;;15.77;10.38;;;;;;;9.94;78.53;93638.75;513893;28;886;-58
2023/05/08 01:20:13;;;;;;;14.20;9.80;;;;;;;9.98;78.08;93644.69;513772;28;857;-58
2023/05/08 01:20:36;;;;;;;17.27;10.77;;;;;;;10.02;78.08;93639.56;513935;28;842;-60
2023/05/08 01:20:57;;;;;;;17.88;10.75;;;;;;;9.99;77.87;93645.41;513211;28;909;-60
2023/05/08 01:21:17;;;;;;;14.23;9.82;;;;;;;9.99;77.84;93650.91;513219;28;905;-57
2023/05/08 01:21:44;;;;;;;13.43;8.77;;;;;;;9.98;77.94;93633.66;513802;28;1147;-57
2023/05/08 01:22:09;;;;;;;10.75;8.48;;;;;;;10.01;77.68;93648.34;511859;28;821;-59
2023/05/08 01:22:48;;;;;;;12.18;9.23;;;;;;;9.99;77.59;93657.19;509876;29;843;-59